메인 페이지
METAR-TAF:

METAR-TAF

공항 :

Kasane, 보츠와나

위도: 17-49S, 경도: 025-09E, 고도: 968m

현재 날씨관측

예보는 35분 전, 10:00시(UTC)에 발표되었습니다.
10kt
온도 27°C
습도 74%
기압 1012 hPa
시정 10km 이상
고도 3000ft 상공 구름 많음

METAR: FBKE 181000Z 28010KT 9999 BKN030 27/22 Q1012

시각: 12:35 (10:35 UTC)

예보

예보는 4 시간 35분 전, 06:00시(UTC)에 발표되었습니다.
예보 대상 시간: 18일 09시부터 18일 18시까지 (UTC)
남남서6kt
시정 10km 이상
고도 2500ft 상공 구름 보통
고도 7000ft 상공 구름 보통
전환 중
18일 12시부터 18일 14시까지 (UTC)
고도 3000ft 상공 구름 조금, 적란운.
확률 30% :
일시적
18일 15시부터 18일 18시까지 (UTC)
뇌우, 비

TAF: FBKE 180600Z 1809/1818 20006KT 9999 SCT025 SCT070 BECMG 1812/1814 FEW030CB PROB30 TEMPO 1815/1818 TSRA

4,000개 이상의 공항 관측 자료 및 예보 (METAR 및 TAF 보고).

지도상에서 검색 가능한 기상관측소가 노란 점과 빨간 점으로 표시되어 있습니다.

기상관측소 명을 보려면 표시 위로 마우스를 이동하세요.

날씨 관측과 예보를 보려면 클릭하세요.

지도 변경 : 확대하려면 엑스 표시가 있는 녹색 버튼, 축소하려면 빼기 표시가 있는 녹색 버튼, 다음 페이지의 지도를 보려면 녹색 화살표를 클릭하세요.


METAR-TAF: